sensor_id;sensor_type;location;lat;lon;timestamp;P1;P2;P0
69238;PMS5003;56349;51.816;-0.026;2023-03-11T00:00:38;0;0;
69238;PMS5003;56349;51.816;-0.026;2023-03-11T00:03:04;0;0;
69238;PMS5003;56349;51.816;-0.026;2023-03-11T00:05:29;0;0;
69238;PMS5003;56349;51.816;-0.026;2023-03-11T00:07:54;0;0;
69238;PMS5003;56349;51.816;-0.026;2023-03-11T00:10:21;0;0;
69238;PMS5003;56349;51.816;-0.026;2023-03-11T00:12:44;0;0;
69238;PMS5003;56349;51.816;-0.026;2023-03-11T00:15:10;0;0;
69238;PMS5003;56349;51.816;-0.026;2023-03-11T00:17:35;0;0;
69238;PMS5003;56349;51.816;-0.026;2023-03-11T00:20:01;0;0;
69238;PMS5003;56349;51.816;-0.026;2023-03-11T00:22:26;1;0;
69238;PMS5003;56349;51.816;-0.026;2023-03-11T00:24:52;0;0;
69238;PMS5003;56349;51.816;-0.026;2023-03-11T00:27:18;0;0;
69238;PMS5003;56349;51.816;-0.026;2023-03-11T00:29:44;0;0;
69238;PMS5003;56349;51.816;-0.026;2023-03-11T00:32:10;0;0;
69238;PMS5003;56349;51.816;-0.026;2023-03-11T00:34:36;0;0;
69238;PMS5003;56349;51.816;-0.026;2023-03-11T00:37:02;1;0;
69238;PMS5003;56349;51.816;-0.026;2023-03-11T00:39:27;0;0;
69238;PMS5003;56349;51.816;-0.026;2023-03-11T00:41:54;0;0;
69238;PMS5003;56349;51.816;-0.026;2023-03-11T00:44:20;0;0;
69238;PMS5003;56349;51.816;-0.026;2023-03-11T00:46:46;0;0;
69238;PMS5003;56349;51.816;-0.026;2023-03-11T00:49:12;0;0;
69238;PMS5003;56349;51.816;-0.026;2023-03-11T00:51:37;1;0;
69238;PMS5003;56349;51.816;-0.026;2023-03-11T00:54:02;0;0;
69238;PMS5003;56349;51.816;-0.026;2023-03-11T00:56:27;1;1;
69238;PMS5003;56349;51.816;-0.026;2023-03-11T00:58:53;1;1;
69238;PMS5003;56349;51.816;-0.026;2023-03-11T01:01:19;0;0;
69238;PMS5003;56349;51.816;-0.026;2023-03-11T01:03:45;0;0;
69238;PMS5003;56349;51.816;-0.026;2023-03-11T01:06:11;0;0;
69238;PMS5003;56349;51.816;-0.026;2023-03-11T01:08:35;0;0;
69238;PMS5003;56349;51.816;-0.026;2023-03-11T01:11:01;0;0;
69238;PMS5003;56349;51.816;-0.026;2023-03-11T01:13:26;0;0;
69238;PMS5003;56349;51.816;-0.026;2023-03-11T01:15:51;0;0;
69238;PMS5003;56349;51.816;-0.026;2023-03-11T01:18:16;0;0;
69238;PMS5003;56349;51.816;-0.026;2023-03-11T01:20:43;1;1;
69238;PMS5003;56349;51.816;-0.026;2023-03-11T01:23:09;0;0;
69238;PMS5003;56349;51.816;-0.026;2023-03-11T01:25:34;0;0;
69238;PMS5003;56349;51.816;-0.026;2023-03-11T01:28:00;0;0;
69238;PMS5003;56349;51.816;-0.026;2023-03-11T01:30:26;0;0;
69238;PMS5003;56349;51.816;-0.026;2023-03-11T01:32:51;1;1;
69238;PMS5003;56349;51.816;-0.026;2023-03-11T01:35:17;0;0;
69238;PMS5003;56349;51.816;-0.026;2023-03-11T01:37:41;2;1;
69238;PMS5003;56349;51.816;-0.026;2023-03-11T01:42:34;2;0;
69238;PMS5003;56349;51.816;-0.026;2023-03-11T01:45:00;1;0;
69238;PMS5003;56349;51.816;-0.026;2023-03-11T01:49:52;0;0;
69238;PMS5003;56349;51.816;-0.026;2023-03-11T01:52:18;3;1;
69238;PMS5003;56349;51.816;-0.026;2023-03-11T01:54:44;0;0;
69238;PMS5003;56349;51.816;-0.026;2023-03-11T01:57:11;3;0;
69238;PMS5003;56349;51.816;-0.026;2023-03-11T01:59:36;1;1;
69238;PMS5003;56349;51.816;-0.026;2023-03-11T02:02:04;0;0;
69238;PMS5003;56349;51.816;-0.026;2023-03-11T02:04:27;0;0;
69238;PMS5003;56349;51.816;-0.026;2023-03-11T02:06:53;1;0;
69238;PMS5003;56349;51.816;-0.026;2023-03-11T02:09:23;1;1;
69238;PMS5003;56349;51.816;-0.026;2023-03-11T02:11:43;0;0;
69238;PMS5003;56349;51.816;-0.026;2023-03-11T02:14:09;0;0;
69238;PMS5003;56349;51.816;-0.026;2023-03-11T02:16:35;1;1;
69238;PMS5003;56349;51.816;-0.026;2023-03-11T02:19:03;0;0;
69238;PMS5003;56349;51.816;-0.026;2023-03-11T02:21:26;0;0;
69238;PMS5003;56349;51.816;-0.026;2023-03-11T02:23:55;2;1;
69238;PMS5003;56349;51.816;-0.026;2023-03-11T02:26:18;0;0;
69238;PMS5003;56349;51.816;-0.026;2023-03-11T02:28:43;0;0;
69238;PMS5003;56349;51.816;-0.026;2023-03-11T02:31:08;2;0;
69238;PMS5003;56349;51.816;-0.026;2023-03-11T02:33:33;0;0;
69238;PMS5003;56349;51.816;-0.026;2023-03-11T02:35:59;1;1;
69238;PMS5003;56349;51.816;-0.026;2023-03-11T02:38:25;0;0;
69238;PMS5003;56349;51.816;-0.026;2023-03-11T02:40:50;1;1;
69238;PMS5003;56349;51.816;-0.026;2023-03-11T02:43:16;0;0;
69238;PMS5003;56349;51.816;-0.026;2023-03-11T02:45:41;0;0;
69238;PMS5003;56349;51.816;-0.026;2023-03-11T02:48:06;1;1;
69238;PMS5003;56349;51.816;-0.026;2023-03-11T02:50:31;0;0;
69238;PMS5003;56349;51.816;-0.026;2023-03-11T02:52:56;0;0;
69238;PMS5003;56349;51.816;-0.026;2023-03-11T02:55:22;1;1;
69238;PMS5003;56349;51.816;-0.026;2023-03-11T02:57:48;0;0;
69238;PMS5003;56349;51.816;-0.026;2023-03-11T03:00:15;0;0;
69238;PMS5003;56349;51.816;-0.026;2023-03-11T03:02:39;0;0;
69238;PMS5003;56349;51.816;-0.026;2023-03-11T03:05:05;1;1;
69238;PMS5003;56349;51.816;-0.026;2023-03-11T03:07:31;0;0;
69238;PMS5003;56349;51.816;-0.026;2023-03-11T03:09:56;0;0;
69238;PMS5003;56349;51.816;-0.026;2023-03-11T03:12:22;0;0;
69238;PMS5003;56349;51.816;-0.026;2023-03-11T03:14:48;0;0;
69238;PMS5003;56349;51.816;-0.026;2023-03-11T03:17:14;1;1;
69238;PMS5003;56349;51.816;-0.026;2023-03-11T03:19:39;0;0;
69238;PMS5003;56349;51.816;-0.026;2023-03-11T03:22:05;0;0;
69238;PMS5003;56349;51.816;-0.026;2023-03-11T03:24:30;1;1;
69238;PMS5003;56349;51.816;-0.026;2023-03-11T03:26:56;1;0;
69238;PMS5003;56349;51.816;-0.026;2023-03-11T03:29:22;0;0;
69238;PMS5003;56349;51.816;-0.026;2023-03-11T03:31:48;2;0;
69238;PMS5003;56349;51.816;-0.026;2023-03-11T03:34:15;0;0;
69238;PMS5003;56349;51.816;-0.026;2023-03-11T03:36:41;2;1;
69238;PMS5003;56349;51.816;-0.026;2023-03-11T03:39:07;2;2;
69238;PMS5003;56349;51.816;-0.026;2023-03-11T03:41:33;1;0;
69238;PMS5003;56349;51.816;-0.026;2023-03-11T03:43:59;0;0;
69238;PMS5003;56349;51.816;-0.026;2023-03-11T03:46:25;1;0;
69238;PMS5003;56349;51.816;-0.026;2023-03-11T03:48:51;1;1;
69238;PMS5003;56349;51.816;-0.026;2023-03-11T03:51:17;0;0;
69238;PMS5003;56349;51.816;-0.026;2023-03-11T03:53:43;1;0;
69238;PMS5003;56349;51.816;-0.026;2023-03-11T03:56:11;0;0;
69238;PMS5003;56349;51.816;-0.026;2023-03-11T03:58:35;0;0;
69238;PMS5003;56349;51.816;-0.026;2023-03-11T04:01:00;1;0;
69238;PMS5003;56349;51.816;-0.026;2023-03-11T04:03:26;1;1;
69238;PMS5003;56349;51.816;-0.026;2023-03-11T04:05:51;0;0;
69238;PMS5003;56349;51.816;-0.026;2023-03-11T04:08:17;9;8;
69238;PMS5003;56349;51.816;-0.026;2023-03-11T04:10:42;6;6;
69238;PMS5003;56349;51.816;-0.026;2023-03-11T04:13:08;8;8;
69238;PMS5003;56349;51.816;-0.026;2023-03-11T04:15:36;7;7;
69238;PMS5003;56349;51.816;-0.026;2023-03-11T04:18:00;8;8;
69238;PMS5003;56349;51.816;-0.026;2023-03-11T04:20:26;8;8;
69238;PMS5003;56349;51.816;-0.026;2023-03-11T04:22:52;8;8;
69238;PMS5003;56349;51.816;-0.026;2023-03-11T04:25:18;8;8;
69238;PMS5003;56349;51.816;-0.026;2023-03-11T04:27:44;7;7;
69238;PMS5003;56349;51.816;-0.026;2023-03-11T04:30:10;9;9;
69238;PMS5003;56349;51.816;-0.026;2023-03-11T04:32:34;6;6;
69238;PMS5003;56349;51.816;-0.026;2023-03-11T04:35:01;8;8;
69238;PMS5003;56349;51.816;-0.026;2023-03-11T04:37:26;6;5;
69238;PMS5003;56349;51.816;-0.026;2023-03-11T04:39:52;9;7;
69238;PMS5003;56349;51.816;-0.026;2023-03-11T04:42:17;8;8;
69238;PMS5003;56349;51.816;-0.026;2023-03-11T04:44:43;8;8;
69238;PMS5003;56349;51.816;-0.026;2023-03-11T04:47:09;8;7;
69238;PMS5003;56349;51.816;-0.026;2023-03-11T04:49:35;8;8;
69238;PMS5003;56349;51.816;-0.026;2023-03-11T04:52:00;8;7;
69238;PMS5003;56349;51.816;-0.026;2023-03-11T04:54:26;8;7;
69238;PMS5003;56349;51.816;-0.026;2023-03-11T04:56:52;7;6;
69238;PMS5003;56349;51.816;-0.026;2023-03-11T04:59:18;7;7;
69238;PMS5003;56349;51.816;-0.026;2023-03-11T05:01:44;7;7;
69238;PMS5003;56349;51.816;-0.026;2023-03-11T05:04:10;6;6;
69238;PMS5003;56349;51.816;-0.026;2023-03-11T05:06:36;6;6;
69238;PMS5003;56349;51.816;-0.026;2023-03-11T05:09:02;7;7;
69238;PMS5003;56349;51.816;-0.026;2023-03-11T05:11:27;7;7;
69238;PMS5003;56349;51.816;-0.026;2023-03-11T05:13:54;9;9;
69238;PMS5003;56349;51.816;-0.026;2023-03-11T05:16:20;7;7;
69238;PMS5003;56349;51.816;-0.026;2023-03-11T05:18:46;6;6;
69238;PMS5003;56349;51.816;-0.026;2023-03-11T05:21:12;7;7;
69238;PMS5003;56349;51.816;-0.026;2023-03-11T05:23:37;7;7;
69238;PMS5003;56349;51.816;-0.026;2023-03-11T05:26:04;9;8;
69238;PMS5003;56349;51.816;-0.026;2023-03-11T05:28:29;6;6;
69238;PMS5003;56349;51.816;-0.026;2023-03-11T05:30:55;8;8;
69238;PMS5003;56349;51.816;-0.026;2023-03-11T05:33:21;7;6;
69238;PMS5003;56349;51.816;-0.026;2023-03-11T05:35:47;10;10;
69238;PMS5003;56349;51.816;-0.026;2023-03-11T05:38:13;6;6;
69238;PMS5003;56349;51.816;-0.026;2023-03-11T05:40:39;9;8;
69238;PMS5003;56349;51.816;-0.026;2023-03-11T05:43:05;9;9;
69238;PMS5003;56349;51.816;-0.026;2023-03-11T05:45:31;6;6;
69238;PMS5003;56349;51.816;-0.026;2023-03-11T05:47:57;5;5;
69238;PMS5003;56349;51.816;-0.026;2023-03-11T05:50:23;9;8;
69238;PMS5003;56349;51.816;-0.026;2023-03-11T05:52:48;7;7;
69238;PMS5003;56349;51.816;-0.026;2023-03-11T05:55:15;6;6;
69238;PMS5003;56349;51.816;-0.026;2023-03-11T05:57:41;5;5;
69238;PMS5003;56349;51.816;-0.026;2023-03-11T06:00:07;6;6;
69238;PMS5003;56349;51.816;-0.026;2023-03-11T06:02:32;7;6;
69238;PMS5003;56349;51.816;-0.026;2023-03-11T06:04:58;8;8;
69238;PMS5003;56349;51.816;-0.026;2023-03-11T06:07:24;7;7;
69238;PMS5003;56349;51.816;-0.026;2023-03-11T06:09:50;7;6;
69238;PMS5003;56349;51.816;-0.026;2023-03-11T06:12:16;6;6;
69238;PMS5003;56349;51.816;-0.026;2023-03-11T06:14:42;7;7;
69238;PMS5003;56349;51.816;-0.026;2023-03-11T06:17:08;10;10;
69238;PMS5003;56349;51.816;-0.026;2023-03-11T06:19:34;8;8;
69238;PMS5003;56349;51.816;-0.026;2023-03-11T06:22:01;7;7;
69238;PMS5003;56349;51.816;-0.026;2023-03-11T06:24:26;6;6;
69238;PMS5003;56349;51.816;-0.026;2023-03-11T06:26:51;7;7;
69238;PMS5003;56349;51.816;-0.026;2023-03-11T06:29:16;5;5;
69238;PMS5003;56349;51.816;-0.026;2023-03-11T06:31:41;8;8;
69238;PMS5003;56349;51.816;-0.026;2023-03-11T06:34:07;6;6;
69238;PMS5003;56349;51.816;-0.026;2023-03-11T06:36:33;6;6;
69238;PMS5003;56349;51.816;-0.026;2023-03-11T06:38:59;6;6;
69238;PMS5003;56349;51.816;-0.026;2023-03-11T06:41:25;7;7;
69238;PMS5003;56349;51.816;-0.026;2023-03-11T06:43:51;7;7;
69238;PMS5003;56349;51.816;-0.026;2023-03-11T06:46:17;5;5;
69238;PMS5003;56349;51.816;-0.026;2023-03-11T06:48:41;7;6;
69238;PMS5003;56349;51.816;-0.026;2023-03-11T06:51:07;7;6;
69238;PMS5003;56349;51.816;-0.026;2023-03-11T06:53:33;6;6;
69238;PMS5003;56349;51.816;-0.026;2023-03-11T06:55:59;6;6;
69238;PMS5003;56349;51.816;-0.026;2023-03-11T06:58:25;8;7;
69238;PMS5003;56349;51.816;-0.026;2023-03-11T07:00:50;6;6;
69238;PMS5003;56349;51.816;-0.026;2023-03-11T07:03:15;6;6;
69238;PMS5003;56349;51.816;-0.026;2023-03-11T07:05:41;6;6;
69238;PMS5003;56349;51.816;-0.026;2023-03-11T07:08:07;8;8;
69238;PMS5003;56349;51.816;-0.026;2023-03-11T07:10:33;5;5;
69238;PMS5003;56349;51.816;-0.026;2023-03-11T07:12:59;7;7;
69238;PMS5003;56349;51.816;-0.026;2023-03-11T07:15:26;7;7;
69238;PMS5003;56349;51.816;-0.026;2023-03-11T07:17:52;7;7;
69238;PMS5003;56349;51.816;-0.026;2023-03-11T07:20:18;6;6;
69238;PMS5003;56349;51.816;-0.026;2023-03-11T07:22:43;5;5;
69238;PMS5003;56349;51.816;-0.026;2023-03-11T07:25:09;5;5;
69238;PMS5003;56349;51.816;-0.026;2023-03-11T07:27:35;7;7;
69238;PMS5003;56349;51.816;-0.026;2023-03-11T07:30:01;4;4;
69238;PMS5003;56349;51.816;-0.026;2023-03-11T07:32:26;7;6;
69238;PMS5003;56349;51.816;-0.026;2023-03-11T07:34:51;7;5;
69238;PMS5003;56349;51.816;-0.026;2023-03-11T07:37:18;7;7;
69238;PMS5003;56349;51.816;-0.026;2023-03-11T07:39:43;6;6;
69238;PMS5003;56349;51.816;-0.026;2023-03-11T07:42:10;6;6;
69238;PMS5003;56349;51.816;-0.026;2023-03-11T07:44:35;5;5;
69238;PMS5003;56349;51.816;-0.026;2023-03-11T07:47:01;7;7;
69238;PMS5003;56349;51.816;-0.026;2023-03-11T07:49:27;5;5;
69238;PMS5003;56349;51.816;-0.026;2023-03-11T07:51:52;7;7;
69238;PMS5003;56349;51.816;-0.026;2023-03-11T07:54:19;7;7;
69238;PMS5003;56349;51.816;-0.026;2023-03-11T07:56:49;8;8;
69238;PMS5003;56349;51.816;-0.026;2023-03-11T07:59:09;6;5;
69238;PMS5003;56349;51.816;-0.026;2023-03-11T08:01:34;5;5;
69238;PMS5003;56349;51.816;-0.026;2023-03-11T08:03:59;5;5;
69238;PMS5003;56349;51.816;-0.026;2023-03-11T08:06:26;6;6;
69238;PMS5003;56349;51.816;-0.026;2023-03-11T08:08:50;5;5;
69238;PMS5003;56349;51.816;-0.026;2023-03-11T08:11:16;7;7;
69238;PMS5003;56349;51.816;-0.026;2023-03-11T08:13:41;5;5;
69238;PMS5003;56349;51.816;-0.026;2023-03-11T08:16:08;10;8;
69238;PMS5003;56349;51.816;-0.026;2023-03-11T08:18:32;5;5;
69238;PMS5003;56349;51.816;-0.026;2023-03-11T08:20:58;5;5;
69238;PMS5003;56349;51.816;-0.026;2023-03-11T08:23:23;5;5;
69238;PMS5003;56349;51.816;-0.026;2023-03-11T08:25:49;4;4;
69238;PMS5003;56349;51.816;-0.026;2023-03-11T08:28:14;8;8;
69238;PMS5003;56349;51.816;-0.026;2023-03-11T08:30:39;5;5;
69238;PMS5003;56349;51.816;-0.026;2023-03-11T08:33:05;10;8;
69238;PMS5003;56349;51.816;-0.026;2023-03-11T08:35:31;7;7;
69238;PMS5003;56349;51.816;-0.026;2023-03-11T08:37:56;8;7;
69238;PMS5003;56349;51.816;-0.026;2023-03-11T08:40:21;5;5;
69238;PMS5003;56349;51.816;-0.026;2023-03-11T08:42:46;7;6;
69238;PMS5003;56349;51.816;-0.026;2023-03-11T08:45:12;10;8;
69238;PMS5003;56349;51.816;-0.026;2023-03-11T08:47:38;7;7;
69238;PMS5003;56349;51.816;-0.026;2023-03-11T08:50:04;5;5;
69238;PMS5003;56349;51.816;-0.026;2023-03-11T08:52:29;7;7;
69238;PMS5003;56349;51.816;-0.026;2023-03-11T08:54:55;4;4;
69238;PMS5003;56349;51.816;-0.026;2023-03-11T08:57:20;8;7;
69238;PMS5003;56349;51.816;-0.026;2023-03-11T08:59:46;6;6;
69238;PMS5003;56349;51.816;-0.026;2023-03-11T09:02:12;5;5;
69238;PMS5003;56349;51.816;-0.026;2023-03-11T09:04:39;7;7;
69238;PMS5003;56349;51.816;-0.026;2023-03-11T09:07:06;8;7;
69238;PMS5003;56349;51.816;-0.026;2023-03-11T09:09:31;6;5;
69238;PMS5003;56349;51.816;-0.026;2023-03-11T09:11:57;6;6;
69238;PMS5003;56349;51.816;-0.026;2023-03-11T09:14:23;6;6;
69238;PMS5003;56349;51.816;-0.026;2023-03-11T09:16:48;6;6;
69238;PMS5003;56349;51.816;-0.026;2023-03-11T09:19:14;5;5;
69238;PMS5003;56349;51.816;-0.026;2023-03-11T09:21:39;7;7;
69238;PMS5003;56349;51.816;-0.026;2023-03-11T09:24:06;6;6;
69238;PMS5003;56349;51.816;-0.026;2023-03-11T09:26:31;8;8;
69238;PMS5003;56349;51.816;-0.026;2023-03-11T09:28:57;5;5;
69238;PMS5003;56349;51.816;-0.026;2023-03-11T09:31:23;9;9;
69238;PMS5003;56349;51.816;-0.026;2023-03-11T09:33:49;7;7;
69238;PMS5003;56349;51.816;-0.026;2023-03-11T09:36:14;7;7;
69238;PMS5003;56349;51.816;-0.026;2023-03-11T09:38:39;8;8;
69238;PMS5003;56349;51.816;-0.026;2023-03-11T09:41:05;8;8;
69238;PMS5003;56349;51.816;-0.026;2023-03-11T09:43:36;8;7;
69238;PMS5003;56349;51.816;-0.026;2023-03-11T09:45:58;9;8;
69238;PMS5003;56349;51.816;-0.026;2023-03-11T09:48:21;9;9;
69238;PMS5003;56349;51.816;-0.026;2023-03-11T09:50:47;7;7;
69238;PMS5003;56349;51.816;-0.026;2023-03-11T09:53:16;7;7;
69238;PMS5003;56349;51.816;-0.026;2023-03-11T09:55:40;9;9;
69238;PMS5003;56349;51.816;-0.026;2023-03-11T09:58:06;10;8;
69238;PMS5003;56349;51.816;-0.026;2023-03-11T10:00:29;9;9;
69238;PMS5003;56349;51.816;-0.026;2023-03-11T10:02:54;8;8;
69238;PMS5003;56349;51.816;-0.026;2023-03-11T10:05:22;6;6;
69238;PMS5003;56349;51.816;-0.026;2023-03-11T10:07:48;7;7;
69238;PMS5003;56349;51.816;-0.026;2023-03-11T10:10:12;9;8;
69238;PMS5003;56349;51.816;-0.026;2023-03-11T10:12:41;10;8;
69238;PMS5003;56349;51.816;-0.026;2023-03-11T10:15:11;8;8;
69238;PMS5003;56349;51.816;-0.026;2023-03-11T10:17:35;8;7;
69238;PMS5003;56349;51.816;-0.026;2023-03-11T10:19:56;8;7;
69238;PMS5003;56349;51.816;-0.026;2023-03-11T10:22:23;9;9;
69238;PMS5003;56349;51.816;-0.026;2023-03-11T10:27:13;6;6;
69238;PMS5003;56349;51.816;-0.026;2023-03-11T10:29:39;8;7;
69238;PMS5003;56349;51.816;-0.026;2023-03-11T10:32:05;8;6;
69238;PMS5003;56349;51.816;-0.026;2023-03-11T10:34:30;6;6;
69238;PMS5003;56349;51.816;-0.026;2023-03-11T10:36:56;8;7;
69238;PMS5003;56349;51.816;-0.026;2023-03-11T10:39:19;9;8;
69238;PMS5003;56349;51.816;-0.026;2023-03-11T10:41:46;8;8;
69238;PMS5003;56349;51.816;-0.026;2023-03-11T10:44:11;6;6;
69238;PMS5003;56349;51.816;-0.026;2023-03-11T10:46:36;9;9;
69238;PMS5003;56349;51.816;-0.026;2023-03-11T10:49:04;7;7;
69238;PMS5003;56349;51.816;-0.026;2023-03-11T10:51:30;7;7;
69238;PMS5003;56349;51.816;-0.026;2023-03-11T10:53:54;6;5;
69238;PMS5003;56349;51.816;-0.026;2023-03-11T10:58:47;7;7;
69238;PMS5003;56349;51.816;-0.026;2023-03-11T11:01:13;7;7;
69238;PMS5003;56349;51.816;-0.026;2023-03-11T11:03:37;6;6;
69238;PMS5003;56349;51.816;-0.026;2023-03-11T11:06:03;6;6;
69238;PMS5003;56349;51.816;-0.026;2023-03-11T11:08:29;8;8;
69238;PMS5003;56349;51.816;-0.026;2023-03-11T11:10:54;8;8;
69238;PMS5003;56349;51.816;-0.026;2023-03-11T11:13:19;8;7;
69238;PMS5003;56349;51.816;-0.026;2023-03-11T11:18:14;6;6;
69238;PMS5003;56349;51.816;-0.026;2023-03-11T11:20:35;9;6;
69238;PMS5003;56349;51.816;-0.026;2023-03-11T11:23:01;6;6;
69238;PMS5003;56349;51.816;-0.026;2023-03-11T11:25:28;8;8;
69238;PMS5003;56349;51.816;-0.026;2023-03-11T11:27:53;5;5;
69238;PMS5003;56349;51.816;-0.026;2023-03-11T11:30:18;5;4;
69238;PMS5003;56349;51.816;-0.026;2023-03-11T11:32:44;5;5;
69238;PMS5003;56349;51.816;-0.026;2023-03-11T11:35:11;7;6;
69238;PMS5003;56349;51.816;-0.026;2023-03-11T11:37:36;6;6;
69238;PMS5003;56349;51.816;-0.026;2023-03-11T11:40:04;6;5;
69238;PMS5003;56349;51.816;-0.026;2023-03-11T11:42:28;4;4;
69238;PMS5003;56349;51.816;-0.026;2023-03-11T11:44:54;6;6;
69238;PMS5003;56349;51.816;-0.026;2023-03-11T11:47:20;5;5;
69238;PMS5003;56349;51.816;-0.026;2023-03-11T11:49:48;7;7;
69238;PMS5003;56349;51.816;-0.026;2023-03-11T11:52:11;7;7;
69238;PMS5003;56349;51.816;-0.026;2023-03-11T11:54:37;6;6;
69238;PMS5003;56349;51.816;-0.026;2023-03-11T11:57:07;6;6;
69238;PMS5003;56349;51.816;-0.026;2023-03-11T11:59:27;5;5;
69238;PMS5003;56349;51.816;-0.026;2023-03-11T12:01:56;6;6;
69238;PMS5003;56349;51.816;-0.026;2023-03-11T12:06:45;7;7;
69238;PMS5003;56349;51.816;-0.026;2023-03-11T12:09:12;5;5;
69238;PMS5003;56349;51.816;-0.026;2023-03-11T12:11:36;5;5;
69238;PMS5003;56349;51.816;-0.026;2023-03-11T12:14:01;4;4;
69238;PMS5003;56349;51.816;-0.026;2023-03-11T12:16:29;6;5;
69238;PMS5003;56349;51.816;-0.026;2023-03-11T12:18:52;6;6;
69238;PMS5003;56349;51.816;-0.026;2023-03-11T12:21:22;6;6;
69238;PMS5003;56349;51.816;-0.026;2023-03-11T12:23:45;6;5;
69238;PMS5003;56349;51.816;-0.026;2023-03-11T12:26:12;8;6;
69238;PMS5003;56349;51.816;-0.026;2023-03-11T12:28:36;5;5;
69238;PMS5003;56349;51.816;-0.026;2023-03-11T12:31:00;7;7;
69238;PMS5003;56349;51.816;-0.026;2023-03-11T12:33:26;4;4;
69238;PMS5003;56349;51.816;-0.026;2023-03-11T12:35:52;5;5;
69238;PMS5003;56349;51.816;-0.026;2023-03-11T12:38:16;4;4;
69238;PMS5003;56349;51.816;-0.026;2023-03-11T12:52:52;4;4;
69238;PMS5003;56349;51.816;-0.026;2023-03-11T12:57:48;5;5;
69238;PMS5003;56349;51.816;-0.026;2023-03-11T13:00:16;4;4;
69238;PMS5003;56349;51.816;-0.026;2023-03-11T13:05:03;5;4;
69238;PMS5003;56349;51.816;-0.026;2023-03-11T13:07:34;6;6;
69238;PMS5003;56349;51.816;-0.026;2023-03-11T13:14:41;6;5;
69238;PMS5003;56349;51.816;-0.026;2023-03-11T13:21:58;4;4;
69238;PMS5003;56349;51.816;-0.026;2023-03-11T13:26:48;7;7;
69238;PMS5003;56349;51.816;-0.026;2023-03-11T13:31:41;3;3;
69238;PMS5003;56349;51.816;-0.026;2023-03-11T13:36:35;5;5;
69238;PMS5003;56349;51.816;-0.026;2023-03-11T13:39:00;5;4;
69238;PMS5003;56349;51.816;-0.026;2023-03-11T13:41:23;6;4;
69238;PMS5003;56349;51.816;-0.026;2023-03-11T13:43:47;4;4;
69238;PMS5003;56349;51.816;-0.026;2023-03-11T13:46:13;4;4;
69238;PMS5003;56349;51.816;-0.026;2023-03-11T13:48:38;6;5;
69238;PMS5003;56349;51.816;-0.026;2023-03-11T13:51:03;4;4;
69238;PMS5003;56349;51.816;-0.026;2023-03-11T13:53:29;3;3;
69238;PMS5003;56349;51.816;-0.026;2023-03-11T13:55:55;6;4;
69238;PMS5003;56349;51.816;-0.026;2023-03-11T13:58:21;6;5;
69238;PMS5003;56349;51.816;-0.026;2023-03-11T14:00:46;5;5;
69238;PMS5003;56349;51.816;-0.026;2023-03-11T14:03:11;5;4;
69238;PMS5003;56349;51.816;-0.026;2023-03-11T14:05:37;5;2;
69238;PMS5003;56349;51.816;-0.026;2023-03-11T14:10:28;6;4;
69238;PMS5003;56349;51.816;-0.026;2023-03-11T14:15:20;4;3;
69238;PMS5003;56349;51.816;-0.026;2023-03-11T14:17:44;2;2;
69238;PMS5003;56349;51.816;-0.026;2023-03-11T14:20:11;6;4;
69238;PMS5003;56349;51.816;-0.026;2023-03-11T14:22:36;7;6;
69238;PMS5003;56349;51.816;-0.026;2023-03-11T14:25:03;4;2;
69238;PMS5003;56349;51.816;-0.026;2023-03-11T14:27:26;3;3;
69238;PMS5003;56349;51.816;-0.026;2023-03-11T14:29:52;7;5;
69238;PMS5003;56349;51.816;-0.026;2023-03-11T14:32:24;5;5;
69238;PMS5003;56349;51.816;-0.026;2023-03-11T14:34:44;7;7;
69238;PMS5003;56349;51.816;-0.026;2023-03-11T14:39:35;7;6;
69238;PMS5003;56349;51.816;-0.026;2023-03-11T14:42:02;3;3;
69238;PMS5003;56349;51.816;-0.026;2023-03-11T14:44:25;4;4;
69238;PMS5003;56349;51.816;-0.026;2023-03-11T14:46:51;6;5;
69238;PMS5003;56349;51.816;-0.026;2023-03-11T14:49:17;8;7;
69238;PMS5003;56349;51.816;-0.026;2023-03-11T14:51:42;4;4;
69238;PMS5003;56349;51.816;-0.026;2023-03-11T14:54:11;7;6;
69238;PMS5003;56349;51.816;-0.026;2023-03-11T14:56:34;4;4;
69238;PMS5003;56349;51.816;-0.026;2023-03-11T14:58:59;4;4;
69238;PMS5003;56349;51.816;-0.026;2023-03-11T15:01:25;5;5;
69238;PMS5003;56349;51.816;-0.026;2023-03-11T15:03:51;4;4;
69238;PMS5003;56349;51.816;-0.026;2023-03-11T15:06:16;7;4;
69238;PMS5003;56349;51.816;-0.026;2023-03-11T15:08:42;2;2;
69238;PMS5003;56349;51.816;-0.026;2023-03-11T15:13:33;2;2;
69238;PMS5003;56349;51.816;-0.026;2023-03-11T15:15:58;3;3;
69238;PMS5003;56349;51.816;-0.026;2023-03-11T15:18:24;2;2;
69238;PMS5003;56349;51.816;-0.026;2023-03-11T15:23:18;5;4;
69238;PMS5003;56349;51.816;-0.026;2023-03-11T15:25:39;2;2;
69238;PMS5003;56349;51.816;-0.026;2023-03-11T15:30:31;2;2;
69238;PMS5003;56349;51.816;-0.026;2023-03-11T15:32:57;2;2;
69238;PMS5003;56349;51.816;-0.026;2023-03-11T15:35:24;3;3;
69238;PMS5003;56349;51.816;-0.026;2023-03-11T15:37:50;4;2;
69238;PMS5003;56349;51.816;-0.026;2023-03-11T15:40:19;1;1;
69238;PMS5003;56349;51.816;-0.026;2023-03-11T15:42:40;5;3;
69238;PMS5003;56349;51.816;-0.026;2023-03-11T15:47:31;3;3;
69238;PMS5003;56349;51.816;-0.026;2023-03-11T15:49:57;3;3;
69238;PMS5003;56349;51.816;-0.026;2023-03-11T15:52:23;4;4;
69238;PMS5003;56349;51.816;-0.026;2023-03-11T15:54:49;2;2;
69238;PMS5003;56349;51.816;-0.026;2023-03-11T15:57:16;3;2;
69238;PMS5003;56349;51.816;-0.026;2023-03-11T15:59:40;3;2;
69238;PMS5003;56349;51.816;-0.026;2023-03-11T16:02:09;2;2;
69238;PMS5003;56349;51.816;-0.026;2023-03-11T16:04:31;1;1;
69238;PMS5003;56349;51.816;-0.026;2023-03-11T16:06:57;1;1;
69238;PMS5003;56349;51.816;-0.026;2023-03-11T16:09:23;3;2;
69238;PMS5003;56349;51.816;-0.026;2023-03-11T16:11:49;2;1;
69238;PMS5003;56349;51.816;-0.026;2023-03-11T16:14:16;0;0;
69238;PMS5003;56349;51.816;-0.026;2023-03-11T16:16:41;2;2;
69238;PMS5003;56349;51.816;-0.026;2023-03-11T16:19:06;2;1;
69238;PMS5003;56349;51.816;-0.026;2023-03-11T16:21:34;4;2;
69238;PMS5003;56349;51.816;-0.026;2023-03-11T16:23:57;1;1;
69238;PMS5003;56349;51.816;-0.026;2023-03-11T16:26:22;1;1;
69238;PMS5003;56349;51.816;-0.026;2023-03-11T16:28:48;2;2;
69238;PMS5003;56349;51.816;-0.026;2023-03-11T16:31:15;3;3;
69238;PMS5003;56349;51.816;-0.026;2023-03-11T16:33:40;2;2;
69238;PMS5003;56349;51.816;-0.026;2023-03-11T16:36:06;2;2;
69238;PMS5003;56349;51.816;-0.026;2023-03-11T16:38:32;2;2;
69238;PMS5003;56349;51.816;-0.026;2023-03-11T16:40:57;1;1;
69238;PMS5003;56349;51.816;-0.026;2023-03-11T16:43:21;2;2;
69238;PMS5003;56349;51.816;-0.026;2023-03-11T16:45:47;2;2;
69238;PMS5003;56349;51.816;-0.026;2023-03-11T16:48:12;3;3;
69238;PMS5003;56349;51.816;-0.026;2023-03-11T16:50:38;3;1;
69238;PMS5003;56349;51.816;-0.026;2023-03-11T16:53:04;1;0;
69238;PMS5003;56349;51.816;-0.026;2023-03-11T16:55:31;1;1;
69238;PMS5003;56349;51.816;-0.026;2023-03-11T16:57:56;1;1;
69238;PMS5003;56349;51.816;-0.026;2023-03-11T17:00:21;2;2;
69238;PMS5003;56349;51.816;-0.026;2023-03-11T17:02:46;1;0;
69238;PMS5003;56349;51.816;-0.026;2023-03-11T17:05:12;2;2;
69238;PMS5003;56349;51.816;-0.026;2023-03-11T17:07:37;2;1;
69238;PMS5003;56349;51.816;-0.026;2023-03-11T17:10:03;1;1;
69238;PMS5003;56349;51.816;-0.026;2023-03-11T17:12:29;2;2;
69238;PMS5003;56349;51.816;-0.026;2023-03-11T17:14:55;1;1;
69238;PMS5003;56349;51.816;-0.026;2023-03-11T17:17:21;2;2;
69238;PMS5003;56349;51.816;-0.026;2023-03-11T17:19:46;1;1;
69238;PMS5003;56349;51.816;-0.026;2023-03-11T17:22:12;1;1;
69238;PMS5003;56349;51.816;-0.026;2023-03-11T17:24:38;1;1;
69238;PMS5003;56349;51.816;-0.026;2023-03-11T17:27:03;1;1;